Time;durP1;ratioP1;P1;durP2;ratioP2;P2;SDS_P1;SDS_P2;PMS_P1;PMS_P2;Temp;Humidity;BMP_temperature;BMP_pressure;BME280_temperature;BME280_humidity;BME280_pressure;Samples;Min_cycle;Max_cycle;Signal;HPM_P1;HPM_P2
2021/07/23 00:02:35;;;;;;;5.82;3.70;;;14.10;99.90;;;;;;20667990;28;20567;-48
2021/07/23 00:12:37;;;;;;;6.60;4.75;;;14.00;99.90;;;;;;20666181;28;20089;-49
2021/07/23 00:22:39;;;;;;;7.63;5.18;;;13.90;99.90;;;;;;20666168;28;20023;-48
2021/07/23 00:32:41;;;;;;;5.97;4.88;;;14.00;99.90;;;;;;20664053;28;20031;-49
2021/07/23 00:42:43;;;;;;;5.68;4.40;;;14.10;99.90;;;;;;20664063;28;20458;-47
2021/07/23 00:52:46;;;;;;;4.68;2.50;;;14.00;99.90;;;;;;20663787;28;20034;-47
2021/07/23 01:02:52;;;;;;;4.95;2.80;;;13.80;99.90;;;;;;20662244;28;20046;-50
2021/07/23 01:12:55;;;;;;;6.45;2.83;;;13.50;99.90;;;;;;20662133;28;20026;-48
2021/07/23 01:23:01;;;;;;;3.53;2.58;;;13.60;99.90;;;;;;20659747;28;20567;-49
2021/07/23 01:33:03;;;;;;;5.50;3.60;;;13.60;99.90;;;;;;20659115;28;20042;-49
2021/07/23 01:43:05;;;;;;;4.95;3.08;;;13.60;99.90;;;;;;20659557;28;20033;-47
2021/07/23 01:53:07;;;;;;;5.90;2.80;;;13.60;99.90;;;;;;20660896;28;20082;-50
2021/07/23 02:03:24;;;;;;;4.32;2.40;;;13.60;99.90;;;;;;20657519;28;20488;-49
2021/07/23 02:13:26;;;;;;;3.72;2.55;;;13.40;99.90;;;;;;20674358;28;20087;-51
2021/07/23 02:23:30;;;;;;;4.60;3.22;;;13.30;99.90;;;;;;20673622;28;20034;-47
2021/07/23 02:33:32;;;;;;;5.13;3.47;;;13.20;99.90;;;;;;20672060;28;20400;-48
2021/07/23 02:43:54;;;;;;;6.43;3.97;;;13.10;99.90;;;;;;20672116;28;20031;-47
2021/07/23 02:53:58;;;;;;;9.07;3.67;;;13.10;99.90;;;;;;20669711;28;20046;-49
2021/07/23 03:04:00;;;;;;;6.13;3.42;;;13.20;99.90;;;;;;20670242;28;20038;-48
2021/07/23 03:14:09;;;;;;;4.53;3.30;;;13.10;99.90;;;;;;20668182;28;20038;-47
2021/07/23 03:24:24;;;;;;;5.18;3.50;;;12.80;99.90;;;;;;20652318;28;20092;-50
2021/07/23 03:34:28;;;;;;;5.13;3.67;;;12.60;99.90;;;;;;20666767;28;20034;-47
2021/07/23 03:44:32;;;;;;;5.50;3.47;;;12.50;99.90;;;;;;20666654;28;20093;-48
2021/07/23 03:54:34;;;;;;;7.30;3.70;;;12.30;99.90;;;;;;20665246;28;20042;-47
2021/07/23 04:04:36;;;;;;;5.03;3.28;;;12.10;99.90;;;;;;20680967;28;20034;-46
2021/07/23 04:14:39;;;;;;;5.13;3.80;;;12.20;99.90;;;;;;20666023;28;20046;-48
2021/07/23 04:24:40;;;;;;;5.95;3.80;;;12.40;99.90;;;;;;20668335;28;20030;-53
2021/07/23 04:34:43;;;;;;;7.15;3.88;;;12.60;99.90;;;;;;20665837;28;20049;-48
2021/07/23 04:44:49;;;;;;;5.25;4.13;;;12.50;99.90;;;;;;20670188;28;20562;-48
2021/07/23 04:54:52;;;;;;;6.68;4.13;;;12.60;99.90;;;;;;20670384;28;20466;-52
2021/07/23 05:05:29;;;;;;;5.85;3.95;;;12.70;99.90;;;;;;20651408;28;20050;-49
2021/07/23 05:15:32;;;;;;;8.57;4.82;;;12.90;99.90;;;;;;20672257;28;20116;-52
2021/07/23 05:25:36;;;;;;;8.02;5.15;;;13.10;99.90;;;;;;20668786;28;20504;-48
2021/07/23 05:35:37;;;;;;;7.50;4.90;;;13.30;99.90;;;;;;20667165;28;20038;-50
2021/07/23 05:45:40;;;;;;;7.47;5.03;;;13.50;99.90;;;;;;20677246;28;20096;-49
2021/07/23 05:55:42;;;;;;;5.80;4.13;;;13.80;99.90;;;;;;20679421;28;20501;-52
2021/07/23 06:05:43;;;;;;;6.03;4.25;;;14.10;99.90;;;;;;20678640;28;20092;-47
2021/07/23 06:15:45;;;;;;;7.25;3.70;;;14.40;99.90;;;;;;20675752;28;20104;-47
2021/07/23 06:25:48;;;;;;;5.45;2.20;;;16.20;99.90;;;;;;20674882;28;20036;-51
2021/07/23 06:35:50;;;;;;;3.47;1.90;;;17.50;99.90;;;;;;20672987;28;20062;-48
2021/07/23 06:45:56;;;;;;;4.20;2.33;;;21.10;99.90;;;;;;20673714;28;20033;-49
2021/07/23 06:55:57;;;;;;;3.65;2.33;;;22.20;99.90;;;;;;20673395;28;20046;-46
2021/07/23 07:06:07;;;;;;;2.13;1.70;;;;;;;;;;20675186;28;20030;-47
2021/07/23 07:16:10;;;;;;;4.30;2.25;;;24.80;98.00;;;;;;20678024;28;20038;-49
2021/07/23 07:26:12;;;;;;;2.03;1.73;;;26.60;95.00;;;;;;20675584;28;20027;-51
2021/07/23 07:36:17;;;;;;;2.28;2.05;;;26.90;93.20;;;;;;20673166;28;20558;-48
2021/07/23 07:46:19;;;;;;;3.20;2.15;;;26.40;91.40;;;;;;20667985;28;20435;-47
2021/07/23 07:56:21;;;;;;;2.63;1.75;;;24.90;93.40;;;;;;20669729;28;20118;-49
2021/07/23 08:06:42;;;;;;;2.72;2.03;;;24.90;94.00;;;;;;20666882;28;20042;-46
2021/07/23 08:16:44;;;;;;;2.75;2.40;;;26.10;93.80;;;;;;20666171;28;20034;-51
2021/07/23 08:26:46;;;;;;;3.60;2.58;;;26.90;92.70;;;;;;20667556;28;20038;-52
2021/07/23 08:36:48;;;;;;;3.33;2.60;;;27.40;92.10;;;;;;20669891;28;20034;-50
2021/07/23 08:46:50;;;;;;;3.92;2.72;;;27.80;91.20;;;;;;20666402;28;20101;-50
2021/07/23 08:56:51;;;;;;;4.07;2.28;;;27.80;91.30;;;;;;20666758;28;20501;-51
2021/07/23 09:07:26;;;;;;;3.60;2.88;;;27.50;91.00;;;;;;20664815;28;20286;-52
2021/07/23 09:17:43;;;;;;;3.28;2.97;;;27.00;92.50;;;;;;20675814;28;20054;-51
2021/07/23 09:27:44;;;;;;;3.53;3.20;;;26.90;93.60;;;;;;20661725;28;20822;-49
2021/07/23 09:37:57;;;;;;;4.85;3.38;;;27.20;93.00;;;;;;20662524;28;20480;-51
2021/07/23 09:48:13;;;;;;;4.53;3.45;;;27.40;91.50;;;;;;20663085;28;20471;-50
2021/07/23 09:58:25;;;;;;;4.27;3.47;;;27.40;93.20;;;;;;20660094;28;20808;-51
2021/07/23 10:08:32;;;;;;;5.15;3.92;;;27.30;92.40;;;;;;20661900;28;20030;-51
2021/07/23 10:18:38;;;;;;;4.82;3.67;;;27.80;92.40;;;;;;20662144;28;20535;-52
2021/07/23 10:28:43;;;;;;;4.28;3.65;;;28.10;92.80;;;;;;20668833;28;20040;-52
2021/07/23 10:38:44;;;;;;;6.13;4.28;;;28.20;92.10;;;;;;20675944;28;20039;-48
2021/07/23 10:48:48;;;;;;;6.40;4.32;;;27.70;93.30;;;;;;20676228;28;20427;-50
2021/07/23 10:58:49;;;;;;;5.15;3.90;;;29.10;93.30;;;;;;20675753;28;20054;-51
2021/07/23 11:08:53;;;;;;;8.95;4.70;;;29.40;93.50;;;;;;20674398;28;20480;-51
2021/07/23 11:18:59;;;;;;;9.73;5.15;;;29.90;90.80;;;;;;20672607;28;20026;-48
2021/07/23 11:29:01;;;;;;;6.17;4.50;;;28.40;88.30;;;;;;20671827;28;20038;-52
2021/07/23 11:39:07;;;;;;;6.18;3.80;;;26.90;93.80;;;;;;20668132;28;20038;-48
2021/07/23 11:49:10;;;;;;;8.60;5.47;;;28.60;93.60;;;;;;20668490;28;20058;-51
2021/07/23 11:59:12;;;;;;;6.07;4.88;;;28.80;93.90;;;;;;20670487;28;20058;-48
2021/07/23 12:09:14;;;;;;;7.90;5.25;;;29.70;92.10;;;;;;20670490;28;20065;-52
2021/07/23 12:19:19;;;;;;;7.22;4.97;;;29.70;92.60;;;;;;20670394;28;20108;-50
2021/07/23 12:29:37;;;;;;;6.73;5.37;;;30.20;91.40;;;;;;20670058;28;20084;-50
2021/07/23 12:40:07;;;;;;;8.35;5.47;;;30.60;90.70;;;;;;20664433;28;20034;-51
2021/07/23 12:50:14;;;;;;;7.63;5.28;;;30.80;90.70;;;;;;20665275;28;20044;-52
2021/07/23 13:00:25;;;;;;;10.25;6.82;;;30.90;90.10;;;;;;20662375;28;20048;-50
2021/07/23 13:10:29;;;;;;;8.55;6.45;;;29.50;90.80;;;;;;20662744;28;20039;-50
2021/07/23 13:20:31;;;;;;;9.35;6.70;;;29.20;92.80;;;;;;20660894;28;20034;-53
2021/07/23 13:30:32;;;;;;;10.27;7.03;;;28.70;92.50;;;;;;20660789;28;20038;-49
2021/07/23 13:40:37;;;;;;;12.63;7.25;;;29.40;90.60;;;;;;20660257;28;20453;-50
2021/07/23 13:50:38;;;;;;;10.50;7.25;;;29.40;91.40;;;;;;20661920;28;20043;-50
2021/07/23 14:00:40;;;;;;;9.05;6.85;;;29.70;91.90;;;;;;20662646;28;20109;-50
2021/07/23 14:10:42;;;;;;;10.02;7.00;;;29.90;91.20;;;;;;20675630;28;20566;-49
2021/07/23 14:20:44;;;;;;;9.82;8.20;;;29.60;90.50;;;;;;20674054;28;20038;-48
2021/07/23 14:30:46;;;;;;;11.02;7.68;;;29.20;91.00;;;;;;20674343;28;20039;-53
2021/07/23 14:40:48;;;;;;;11.25;8.55;;;29.20;89.40;;;;;;20673033;28;20084;-51
2021/07/23 14:50:50;;;;;;;10.55;8.60;;;29.10;91.00;;;;;;20673108;28;20069;-50
2021/07/23 15:00:52;;;;;;;9.25;7.80;;;30.30;89.30;;;;;;20673750;28;20488;-53
2021/07/23 15:10:55;;;;;;;10.52;7.63;;;29.60;87.30;;;;;;20672316;28;20026;-49
2021/07/23 15:21:02;;;;;;;9.00;7.30;;;29.20;89.70;;;;;;20671470;28;20031;-53
2021/07/23 15:31:04;;;;;;;10.60;8.15;;;29.90;88.50;;;;;;20672265;28;20112;-54
2021/07/23 15:41:07;;;;;;;10.82;7.88;;;30.50;85.60;;;;;;20672331;28;20034;-51
2021/07/23 15:51:09;;;;;;;11.98;8.07;;;30.30;84.50;;;;;;20671122;28;20042;-50
2021/07/23 16:01:16;;;;;;;9.27;7.65;;;29.20;87.10;;;;;;20670556;28;20046;-53
2021/07/23 16:11:21;;;;;;;10.93;6.63;;;28.80;86.30;;;;;;20671283;28;20042;-52
2021/07/23 16:21:26;;;;;;;12.25;7.43;;;28.60;86.20;;;;;;20669990;28;20038;-49
2021/07/23 16:31:28;;;;;;;11.98;8.48;;;26.70;90.90;;;;;;20666752;28;20085;-49
2021/07/23 16:41:30;;;;;;;13.20;8.55;;;25.20;92.90;;;;;;20665617;28;20034;-49
2021/07/23 16:51:32;;;;;;;13.32;7.93;;;24.10;94.30;;;;;;20663824;28;20041;-47
2021/07/23 17:01:33;;;;;;;15.02;9.45;;;22.80;97.20;;;;;;20660745;28;20085;-47
2021/07/23 17:11:35;;;;;;;12.77;9.30;;;21.60;98.80;;;;;;20659342;28;20039;-48
2021/07/23 17:21:37;;;;;;;18.88;11.75;;;20.80;99.90;;;;;;20658104;28;20104;-48
2021/07/23 17:31:39;;;;;;;17.45;11.30;;;20.30;99.90;;;;;;20657493;28;20030;-48
2021/07/23 17:41:41;;;;;;;18.40;9.38;;;19.70;99.90;;;;;;20655954;28;20534;-48
2021/07/23 17:51:47;;;;;;;17.90;11.20;;;19.20;99.90;;;;;;20658089;28;20080;-51
2021/07/23 18:01:48;;;;;;;19.65;12.57;;;18.90;99.90;;;;;;20616847;28;1258994;-46
2021/07/23 18:11:50;;;;;;;20.63;14.77;;;18.60;99.90;;;;;;20659940;28;20380;-46
2021/07/23 18:21:52;;;;;;;22.55;14.77;;;18.30;99.90;;;;;;20660426;28;20038;-47
2021/07/23 18:31:54;;;;;;;22.08;14.35;;;17.90;99.90;;;;;;20660489;28;20034;-48
2021/07/23 18:42:09;;;;;;;21.42;13.98;;;17.70;99.90;;;;;;20660599;28;20061;-46
2021/07/23 18:52:11;;;;;;;21.20;14.00;;;17.50;99.90;;;;;;20668772;28;20062;-49
2021/07/23 19:02:15;;;;;;;25.58;17.10;;;17.30;99.90;;;;;;20671792;28;20050;-47
2021/07/23 19:12:19;;;;;;;28.73;17.85;;;17.00;99.90;;;;;;20671291;28;20444;-45
2021/07/23 19:22:20;;;;;;;38.50;21.15;;;16.70;99.90;;;;;;20671065;28;20034;-51
2021/07/23 19:32:23;;;;;;;30.67;20.45;;;16.50;99.90;;;;;;20670001;28;20042;-46
2021/07/23 19:42:26;;;;;;;33.10;20.55;;;16.40;99.90;;;;;;20669004;28;20130;-46
2021/07/23 19:52:28;;;;;;;29.92;18.15;;;16.20;99.90;;;;;;20668665;28;20345;-46
2021/07/23 20:02:30;;;;;;;33.53;20.27;;;16.20;99.90;;;;;;20666873;28;20093;-46
2021/07/23 20:12:33;;;;;;;30.63;19.80;;;16.20;99.90;;;;;;20668688;28;20045;-47
2021/07/23 20:22:35;;;;;;;37.28;19.15;;;16.20;99.90;;;;;;20666439;28;20042;-46
2021/07/23 20:32:37;;;;;;;32.90;20.58;;;16.00;99.90;;;;;;20665501;28;20030;-47
2021/07/23 20:42:39;;;;;;;29.67;18.45;;;16.00;99.90;;;;;;20666943;28;20042;-45
2021/07/23 20:52:42;;;;;;;32.60;21.52;;;16.00;99.90;;;;;;20664367;28;20046;-46
2021/07/23 21:02:44;;;;;;;37.55;23.23;;;16.20;99.90;;;;;;20665522;28;20057;-52
2021/07/23 21:12:47;;;;;;;32.92;20.23;;;16.20;99.90;;;;;;20664165;28;20050;-47
2021/07/23 21:22:49;;;;;;;26.00;15.77;;;16.20;99.90;;;;;;20665343;28;20480;-47
2021/07/23 21:32:51;;;;;;;31.63;19.35;;;16.10;99.90;;;;;;20663775;28;20034;-49
2021/07/23 21:42:53;;;;;;;30.58;19.83;;;16.00;99.90;;;;;;20665583;28;20318;-47
2021/07/23 21:52:55;;;;;;;33.47;20.25;;;15.90;99.90;;;;;;20666320;28;20038;-48
2021/07/23 22:02:57;;;;;;;38.67;21.42;;;15.70;99.90;;;;;;20664228;28;20038;-47
2021/07/23 22:12:59;;;;;;;36.53;21.80;;;15.50;99.90;;;;;;20663133;28;20435;-46
2021/07/23 22:23:01;;;;;;;33.80;20.25;;;15.50;99.90;;;;;;20667123;28;20046;-45
2021/07/23 22:33:03;;;;;;;33.25;20.65;;;15.50;99.90;;;;;;20677076;28;20035;-49
2021/07/23 22:43:05;;;;;;;36.35;20.95;;;15.50;99.90;;;;;;20676402;28;20061;-46
2021/07/23 22:53:07;;;;;;;38.10;23.35;;;15.60;99.90;;;;;;20675178;28;20089;-48
2021/07/23 23:03:08;;;;;;;35.55;22.60;;;15.50;99.90;;;;;;20674099;28;20468;-47
2021/07/23 23:13:11;;;;;;;45.78;26.75;;;15.50;99.90;;;;;;20673833;28;20053;-49
2021/07/23 23:23:13;;;;;;;46.45;26.83;;;15.40;99.90;;;;;;20672338;28;20106;-45
2021/07/23 23:33:15;;;;;;;42.95;26.15;;;15.30;99.90;;;;;;20672864;28;20384;-47
2021/07/23 23:43:17;;;;;;;48.45;26.80;;;15.30;99.90;;;;;;20670916;28;20042;-45
2021/07/23 23:53:19;;;;;;;54.80;28.25;;;15.30;99.90;;;;;;20671829;28;20041;-46
